Airfield :
LOGIN :

Register | Disclaimer

   EN    FR    IT 

 










Legend :    VFR   Marginal VFR   IFR   Intensive IFR   Very Intensive IFR
Visi :
Ceiling :
>= 8 km
>= 3000ft
5 to 8 km
1000 to 3000 ft
1500m to 5 km
500 to 1000 ft
800 to 1500m
200 to 500 ft
< 800m
< 200 ft
Symbols :   Thunderstorms  Fog  Heavy snow  Heavy precipitations  Wind > 20 kt
SIGMETs :     Misc.  Thunderstorms  Icing  Turbulence  Mountain Waves  Volcanic Ashes






- Airport Elevation : 489 ft
- IATA code : GDN


EPGD - Gdansk

CURRENT METAR :
  • 180230Z 24015KT CAVOK 05/01 Q1009

EXPIRED METARs :
  • 180200Z 24014KT CAVOK 05/01 Q1009
  • 180130Z 24014KT CAVOK 05/00 Q1009
  • 180100Z 24015KT CAVOK 06/00 Q1009
  • 180030Z 24014KT 210V270 CAVOK 06/00 Q1008
  • 180000Z 23015KT CAVOK 05/00 Q1008

TAF TAF EPGD
Valid from the 18 at 00:00 until the 19 at 00:00 UTC


172330Z 1800/1824 15012KT 9999 SCT040
TEMPO 1808/1824 27017G38KT -SHRA BKN020CB
PROB30
TEMPO 1810/1816 4000 -TSRA BKN005 BKN014CB



MET'MAP, your aeronautical weather chart ! - Copyright ORBIFLY December 2007 - Disclaimer

ORBIFLY MET'MAP TEAM :

Programming & Development : Alexandra Zaïnal
Concept & original design : Baudouin d'Aumeries
Assistance for programming : Marc-Olivier Méhu
Technical & hardware support : Manuel Goepfert

Contact : metmap@orbifly.com




SOURCES & CREDITS :

   NOAA